Seaside Heights, NJ

11:47 PM EDT on March 26, 2015 (GMT -0400)
O Street | | Change Station
CLOSE
Current Station
Personal Weather Station
Location: Seaside Park, NJ
Elevation: 10 ft
Nearby Weather Stations

Elev 10 ft 39.93 °N, 74.08 °W | Updated 4 minutes ago

Overcast
Overcast
53.4 °F
Feels Like 53.4 °F
N
1.0
Wind Variable Wind from NW
Gusts 12.0 mph

Today
High -- | Low -- °F
--% Chance of Precip.
Yesterday
High -- | Low -- °F
Precip. -- in
6:50 AM 7:14 PM
Waxing Crescent, 48% visible
Pressure 29.65 in
Visibility 10.0 miles
Clouds Few 1200 ft
Scattered Clouds 4900 ft
Mostly Cloudy 6500 ft
Dew Point 53 °F
Humidity 98%
Rainfall 0.07 in
Snow Depth Not available.
UV 0 out of 12
Pollen 2.90 out of 12
Air Quality Not available.
Flu Activity Not available.
METAR KMJX 270335Z AUTO 32007KT 10SM FEW012 SCT049 BKN065 14/12 A2965 RMK AO1

More Conditions Fewer Conditions

Pressure 29.65 in
Visibility 10.0 miles
Clouds Few 1200 ft
Scattered Clouds 4900 ft
Mostly Cloudy 6500 ft
Dew Point 53 °F
Humidity 98%
Rainfall 0.07 in
Snow Depth Not available.
UV 0 out of 12
Pollen 2.90 out of 12
Air Quality Not available.
Flu Activity Not available.
METAR KMJX 270335Z AUTO 32007KT 10SM FEW012 SCT049 BKN065 14/12 A2965 RMK AO1

More Conditions Fewer Conditions

Nowcast | as of 9:42 PM EDT on March 26, 2015

A line of showers associated with a cold front will continue to move across the area through late this evening. A period of moderate to heavy rainfall is possible with some showers which may lead to ponding on roadways and poor drainage areas. An occasional lightning strike or rumble of thunder also cannot be ruled out. Winds behind the cold front will shift to the northwest and may gust around 25 to 30 mph.

×

10-Day Weather Forecast

Almanac

Astronomy

Mar. 26, 2015 Rise Set
Actual Time
Civil Twilight
Nautical Twilight
Astronomical Twilight
Moon
Length of Visible Light
Length of Day
Tomorrow will be .
, % of the Moon is Illuminated

Today's Extremes

State Highs State Lows

Community

WunderPhotos

Upload Photos

1,808,703 photos uploaded!

WunderBlogs® & News

Nearby

Air Quality

  Air Quality AQ Index Pollutant
Not available.

Snow Depth

Station Depth Elevation

Earthquake Activity

City Distance Mag. Time & Date
Minimum magnitude displayed is 2.5.

Coastal Water Temperatures

Place Temperature

Stations

Nearby Weather Stations

Station Location Temp. Windchill Dew Point Humidity Wind Precip. Elev Updated Type